航空気象通報

ウインドサーファーのための航空気象通報による風予報です。

12/14-12/16の航空気象通報

2017年12月14日 22時38分46秒 | TAF
羽田空港
TAF RJTT 141105Z 1412/1518 34012KT 9999 FEW030
BECMG 1503/1506 09008KT
BECMG 1509/1512 35006KT
日本時間14日21時-15日12時:340度から12ノットの風
12-15時:風が変化
15-18時:090度から8ノットの風
18-21時:風が変化
21時-16日03時:350度から6ノットの風


静岡空港
TAF RJNS 141105Z 1412/1518 34004KT 9999 FEW020 SCT040
BECMG 1500/1503 12005KT
BECMG 1506/1509 27009KT
日本時間14日21時-15日09時:340度から4ノットの風
09-12時:風が変化
12-15時:120度から5ノットの風
15-18時:風が変化
18時-16日03時:270度から9ノットの風


福岡空港
TAF RJFF 141105Z 1412/1518 14003KT 9999 FEW035
BECMG 1503/1506 33006KT
BECMG 1509/1512 15005KT
日本時間14日21時-15日12時:140度から3ノットの風
12-15時:風が変化
15-18時:330度から6ノットの風
18-21時:風が変化
21時-16日03時:150度から5ノットの風


那覇空港
TAF ROAH 141105Z 1412/1518 04008KT 9999 FEW035 BKN045
日本時間14日21時-16日03時:040度から8ノットの風


石垣空港
TAF ROIG 141107Z 1412/1518 06015KT 9999 FEW020 BKN040
日本時間14日21時-16日03時:060度から15ノットの風


マウイのカフルイ空港
PHOG 141139Z 1412/1512 03013KT P6SM SCT040
FM142000 03020G30KT P6SM VCSH FEW025 BKN040
FM150600 04012G18KT P6SM VCSH SCT025 BKN040 AMD LTD TO VIS AND WIND TIL 141600
ハワイ時間14日02-10時:030度から13ノットの風
10-20時:030度から20ノット、突風30ノット
20時-15日02時:040度から12ノット、突風18ノット


サイパン空港
TAF PGSN 141130Z 1412/1512 09010KT P6SM VCSH SCT019 BKN110
マリアナ時間14日22時-15日22時:090度から10ノットの風

ジャンル:
お天気
コメント   この記事についてブログを書く
この記事をはてなブックマークに追加
« 12/13-12/15の航空気象通報 | トップ | 12/15-12/17の航空気象通報 »
最近の画像もっと見る

コメントを投稿

ブログ作成者から承認されるまでコメントは反映されません。

TAF」カテゴリの最新記事